createdAt,value
2022-12-19T00:04:49.196Z,88.24
2022-12-19T00:09:52.504Z,88.44
2022-12-19T00:14:55.919Z,88.91
2022-12-19T00:20:01.790Z,88.69
2022-12-19T00:25:05.817Z,89.29
2022-12-19T00:30:11.661Z,89.12
2022-12-19T00:35:15.510Z,89.55
2022-12-19T00:40:18.820Z,89.75
2022-12-19T00:45:22.646Z,89.26
2022-12-19T00:50:25.953Z,89.11
2022-12-19T00:55:29.672Z,89.52
2022-12-19T01:00:33.030Z,89.13
2022-12-19T01:05:36.505Z,89.51
2022-12-19T01:10:46.915Z,89.28
2022-12-19T01:15:50.598Z,89.08
2022-12-19T01:20:53.910Z,88.80
2022-12-19T01:25:57.937Z,88.75
2022-12-19T01:31:01.247Z,88.31
2022-12-19T01:36:07.953Z,88.48
2022-12-19T01:41:11.994Z,88.91
2022-12-19T01:46:15.833Z,88.66
2022-12-19T01:51:24.644Z,87.94
2022-12-19T01:56:34.826Z,88.19
2022-12-19T02:01:50.883Z,88.28
2022-12-19T02:06:57.692Z,87.95
2022-12-19T02:12:01.802Z,87.84
2022-12-19T02:17:21.605Z,87.86
2022-12-19T02:22:34.131Z,87.83
2022-12-19T02:27:56.292Z,87.95
2022-12-19T02:33:13.734Z,87.91
2022-12-19T02:38:39.263Z,87.82
2022-12-19T02:43:49.010Z,87.48
2022-12-19T02:48:59.113Z,87.31
2022-12-19T02:54:02.722Z,87.37
2022-12-19T02:59:19.038Z,87.43
2022-12-19T03:04:34.843Z,87.69
2022-12-19T03:09:51.161Z,87.88
2022-12-19T03:14:57.199Z,87.73
2022-12-19T03:20:01.087Z,87.71
2022-12-19T03:25:04.909Z,87.77
2022-12-19T03:30:12.533Z,87.96
2022-12-19T03:35:23.482Z,87.85
2022-12-19T03:40:30.824Z,87.78
2022-12-19T03:45:40.246Z,87.77
2022-12-19T03:50:55.150Z,88.11
2022-12-19T03:56:06.961Z,87.96
2022-12-19T04:01:10.491Z,88.03
2022-12-19T04:06:15.112Z,87.96
2022-12-19T04:11:20.978Z,88.05
2022-12-19T04:17:00.230Z,87.73
2022-12-19T04:22:10.505Z,87.77
2022-12-19T04:27:15.074Z,87.78
2022-12-19T04:32:19.597Z,87.64
2022-12-19T04:37:24.122Z,87.47
2022-12-19T04:42:27.434Z,87.63
2022-12-19T04:47:30.948Z,87.54
2022-12-19T04:52:34.468Z,87.57
2022-12-19T04:57:38.080Z,87.56
2022-12-19T05:02:41.731Z,87.74
2022-12-19T05:07:47.274Z,87.69
2022-12-19T05:12:50.785Z,87.69
2022-12-19T05:17:54.290Z,87.68
2022-12-19T05:22:59.218Z,87.57
2022-12-19T05:28:04.805Z,87.72
2022-12-19T05:33:08.631Z,87.76
2022-12-19T05:38:12.141Z,87.81
2022-12-19T05:43:15.556Z,87.95
2022-12-19T05:48:18.864Z,87.94
2022-12-19T05:53:25.983Z,87.89
2022-12-19T05:58:31.632Z,87.92
2022-12-19T06:03:35.122Z,87.90
2022-12-19T06:08:39.375Z,87.98
2022-12-19T06:13:42.684Z,88.19
2022-12-19T06:18:47.671Z,88.04
2022-12-19T06:23:51.573Z,88.16
2022-12-19T06:28:56.081Z,88.21
2022-12-19T06:33:59.618Z,87.97
2022-12-19T06:39:04.460Z,87.76
2022-12-19T06:44:11.396Z,88.00
2022-12-19T06:49:15.997Z,88.03
2022-12-19T06:54:19.412Z,87.76
2022-12-19T06:59:23.233Z,87.63
2022-12-19T07:04:33.363Z,87.96
2022-12-19T07:09:37.122Z,87.88
2022-12-19T07:14:40.435Z,87.61
2022-12-19T07:19:44.151Z,87.92
2022-12-19T07:24:47.769Z,87.54
2022-12-19T07:29:50.979Z,87.65
2022-12-19T07:34:54.597Z,87.68
2022-12-19T07:39:58.320Z,87.82
2022-12-19T07:45:01.834Z,87.76
2022-12-19T07:50:06.269Z,88.03
2022-12-19T07:55:10.297Z,87.81
2022-12-19T08:00:13.809Z,87.75
2022-12-19T08:05:17.534Z,88.09
2022-12-19T08:10:23.089Z,88.04
2022-12-19T08:15:26.619Z,87.58
2022-12-19T08:20:30.127Z,88.07
2022-12-19T08:25:33.821Z,87.89
2022-12-19T08:30:39.773Z,87.93
2022-12-19T08:35:43.127Z,87.69
2022-12-19T08:40:53.948Z,87.88
2022-12-19T08:45:57.515Z,87.78
2022-12-19T08:51:04.062Z,88.21
2022-12-19T08:56:12.959Z,87.81
2022-12-19T09:01:21.341Z,87.97
2022-12-19T09:06:25.672Z,88.01
2022-12-19T09:11:29.138Z,87.49
2022-12-19T09:16:32.891Z,88.04
2022-12-19T09:21:36.476Z,88.15
2022-12-19T09:26:40.403Z,87.92
2022-12-19T09:31:43.919Z,87.94
2022-12-19T09:36:47.230Z,88.48
2022-12-19T09:42:08.459Z,88.42
2022-12-19T09:47:25.308Z,87.68
2022-12-19T09:52:41.397Z,87.90
2022-12-19T09:58:10.408Z,88.23
2022-12-19T10:03:40.263Z,88.00
2022-12-19T10:09:11.807Z,87.42
2022-12-19T10:14:08.882Z,87.41
2022-12-19T10:19:34.944Z,87.00
2022-12-19T10:24:57.595Z,86.97
2022-12-19T10:30:19.369Z,87.23
2022-12-19T10:35:37.903Z,87.30
2022-12-19T10:41:15.730Z,87.06
2022-12-19T10:46:41.098Z,87.31
2022-12-19T10:52:08.196Z,87.12
2022-12-19T10:57:30.325Z,87.17
2022-12-19T11:02:40.068Z,87.18
2022-12-19T11:08:00.915Z,86.94
2022-12-19T11:18:35.180Z,87.03
2022-12-19T11:27:40.680Z,86.93
2022-12-19T11:30:07.045Z,86.81
2022-12-19T11:35:21.652Z,87.06
2022-12-19T11:40:43.153Z,87.05
2022-12-19T11:46:08.588Z,86.67
2022-12-19T11:51:36.877Z,86.39
2022-12-19T11:56:40.493Z,86.65
2022-12-19T12:01:47.698Z,86.36
2022-12-19T12:06:53.605Z,86.31
2022-12-19T12:19:44.516Z,86.36
2022-12-19T12:31:01.842Z,86.06
2022-12-19T12:31:07.463Z,86.07
2022-12-19T12:32:03.193Z,85.83
2022-12-19T12:35:51.088Z,85.81
2022-12-19T12:40:43.767Z,86.04
2022-12-19T12:45:47.598Z,85.88
2022-12-19T12:50:55.322Z,85.65
2022-12-19T12:56:02.961Z,85.59
2022-12-19T13:01:12.137Z,85.92
2022-12-19T13:06:37.999Z,85.62
2022-12-19T13:12:07.421Z,85.67
2022-12-19T13:17:13.632Z,85.57
2022-12-19T13:22:38.936Z,85.37
2022-12-19T13:27:48.599Z,85.69
2022-12-19T13:32:52.105Z,85.69
2022-12-19T13:39:47.803Z,85.57
2022-12-19T13:43:46.440Z,85.80
2022-12-19T13:48:57.129Z,85.90
2022-12-19T13:54:00.543Z,85.87
2022-12-19T13:59:05.287Z,86.12
2022-12-19T14:04:25.182Z,86.09
2022-12-19T14:11:26.328Z,86.06
2022-12-19T14:15:14.815Z,85.57
2022-12-19T14:21:36.454Z,85.97
2022-12-19T14:28:18.228Z,85.73
2022-12-19T14:31:21.337Z,86.13
2022-12-19T14:36:29.976Z,86.10
2022-12-19T14:42:02.113Z,86.18
2022-12-19T14:54:07.205Z,85.82
2022-12-19T14:54:25.925Z,85.54
2022-12-19T14:58:53.487Z,86.14
2022-12-19T15:04:53.133Z,86.16
2022-12-19T15:10:59.048Z,86.20
2022-12-19T15:14:59.179Z,86.33
2022-12-19T15:20:03.275Z,86.11
2022-12-19T15:25:17.579Z,85.99
2022-12-19T15:30:35.959Z,86.42
2022-12-19T15:35:42.388Z,86.18
2022-12-19T15:40:46.002Z,86.17
2022-12-19T15:45:56.892Z,86.36
2022-12-19T15:51:00.097Z,86.11
2022-12-19T15:56:03.724Z,86.30
2022-12-19T16:01:07.133Z,86.49
2022-12-19T16:06:20.521Z,86.58
2022-12-19T16:11:25.030Z,86.70
2022-12-19T16:16:29.898Z,86.81
2022-12-19T16:21:34.454Z,86.81
2022-12-19T16:26:40.630Z,86.93
2022-12-19T16:31:43.920Z,87.15
2022-12-19T16:36:48.946Z,86.81
2022-12-19T16:41:52.266Z,86.75
2022-12-19T16:46:59.046Z,86.69
2022-12-19T16:52:02.467Z,86.69
2022-12-19T16:57:08.484Z,86.68
2022-12-19T17:02:26.884Z,86.67
2022-12-19T17:07:32.277Z,86.85
2022-12-19T17:12:38.741Z,86.87
2022-12-19T17:17:42.508Z,86.85
2022-12-19T17:22:46.798Z,86.52
2022-12-19T17:27:50.517Z,86.64
2022-12-19T17:32:55.777Z,86.86
2022-12-19T17:37:59.083Z,86.58
2022-12-19T17:43:04.959Z,86.31
2022-12-19T17:48:23.421Z,86.33
2022-12-19T17:53:27.167Z,86.54
2022-12-19T17:58:30.453Z,86.38
2022-12-19T18:03:34.140Z,86.46
2022-12-19T18:08:37.685Z,86.53
2022-12-19T18:13:41.202Z,86.46
2022-12-19T18:18:45.851Z,86.49
2022-12-19T18:23:49.468Z,86.56
2022-12-19T18:28:52.772Z,86.31
2022-12-19T18:34:02.053Z,86.46
2022-12-19T18:39:24.233Z,86.17
2022-12-19T18:44:27.484Z,86.16
2022-12-19T18:49:36.120Z,86.44
2022-12-19T18:54:39.744Z,86.41
2022-12-19T18:59:43.150Z,86.24
2022-12-19T19:04:46.567Z,86.35
2022-12-19T19:09:49.980Z,86.61
2022-12-19T19:14:55.127Z,86.94
2022-12-19T19:20:00.291Z,86.77
2022-12-19T19:25:04.320Z,86.82
2022-12-19T19:30:12.124Z,87.04
2022-12-19T19:35:20.115Z,86.75
2022-12-19T19:40:24.619Z,86.75
2022-12-19T19:45:28.327Z,87.06
2022-12-19T19:50:32.438Z,87.00
2022-12-19T19:55:35.750Z,86.70
2022-12-19T20:00:40.939Z,86.86
2022-12-19T20:05:44.618Z,86.58
2022-12-19T20:10:57.874Z,86.61
2022-12-19T20:16:36.770Z,86.70
2022-12-19T20:21:44.513Z,86.70
2022-12-19T20:26:49.381Z,86.49
2022-12-19T20:31:52.801Z,86.83
2022-12-19T20:36:56.301Z,86.63
2022-12-19T20:41:59.920Z,86.95
2022-12-19T20:47:04.150Z,86.96
2022-12-19T20:52:07.776Z,86.82
2022-12-19T20:57:13.960Z,87.17
2022-12-19T21:02:20.295Z,87.11
2022-12-19T21:07:28.758Z,87.01
2022-12-19T21:12:32.275Z,87.26
2022-12-19T21:17:35.689Z,87.70
2022-12-19T21:22:39.102Z,87.84
2022-12-19T21:27:48.699Z,87.46
2022-12-19T21:32:52.172Z,87.62
2022-12-19T21:37:55.993Z,87.36
2022-12-19T21:42:59.327Z,87.51
2022-12-19T21:48:02.729Z,87.42
2022-12-19T21:53:06.242Z,87.43
2022-12-19T21:58:09.654Z,87.37
2022-12-19T22:03:18.132Z,87.31
2022-12-19T22:08:28.775Z,87.35
2022-12-19T22:13:32.074Z,87.36
2022-12-19T22:25:47.003Z,87.99
2022-12-19T22:30:50.417Z,88.32
2022-12-19T22:35:54.442Z,88.36
2022-12-19T22:41:02.666Z,88.48
2022-12-19T22:46:23.258Z,88.38
2022-12-19T22:51:28.139Z,88.82
2022-12-19T22:56:33.286Z,88.83
2022-12-19T23:01:41.992Z,89.16
2022-12-19T23:06:52.603Z,89.38
2022-12-19T23:12:10.521Z,90.15
2022-12-19T23:17:15.717Z,90.85
2022-12-19T23:22:19.128Z,91.29
2022-12-19T23:27:22.742Z,91.64
2022-12-19T23:32:26.188Z,92.53
2022-12-19T23:37:29.680Z,92.85
2022-12-19T23:42:33.131Z,93.09
2022-12-19T23:47:36.706Z,93.78
2022-12-19T23:52:40.116Z,94.01
2022-12-19T23:57:43.647Z,94.53
